createdAt,value
2023-11-08T00:00:56.561Z,93778.13
2023-11-08T00:01:55.748Z,93769.31
2023-11-08T00:02:52.798Z,93753.28
2023-11-08T00:03:49.626Z,93763.41
2023-11-08T00:04:46.363Z,93780.66
2023-11-08T00:05:43.093Z,93758.50
2023-11-08T00:06:40.420Z,93773.84
2023-11-08T00:07:37.337Z,93778.69
2023-11-08T00:08:34.017Z,93773.06
2023-11-08T00:09:30.753Z,93772.50
2023-11-08T00:10:27.893Z,93768.34
2023-11-08T00:11:24.911Z,93772.69
2023-11-08T00:12:21.800Z,93771.09
2023-11-08T00:13:21.481Z,93768.25
2023-11-08T00:14:18.170Z,93776.34
2023-11-08T00:15:15.001Z,93780.16
2023-11-08T00:16:12.769Z,93781.44
2023-11-08T00:17:09.548Z,93777.47
2023-11-08T00:18:07.024Z,93768.47
2023-11-08T00:19:04.274Z,93763.56
2023-11-08T00:20:00.948Z,93761.53
2023-11-08T00:20:57.591Z,93755.53
2023-11-08T00:21:54.296Z,93754.31
2023-11-08T00:22:51.002Z,93751.81
2023-11-08T00:23:47.601Z,93743.97
2023-11-08T00:24:44.458Z,93742.78
2023-11-08T00:25:41.163Z,93743.13
2023-11-08T00:26:37.777Z,93750.25
2023-11-08T00:27:34.562Z,93749.78
2023-11-08T00:28:31.251Z,93721.97
2023-11-08T00:29:28.693Z,93742.22
2023-11-08T00:30:25.443Z,93745.25
2023-11-08T00:31:22.059Z,93755.19
2023-11-08T00:32:22.881Z,93752.66
2023-11-08T00:33:19.833Z,93745.53
2023-11-08T00:34:17.624Z,93741.69
2023-11-08T00:35:14.919Z,93740.63
2023-11-08T00:36:11.583Z,93727.03
2023-11-08T00:37:10.561Z,93739.78
2023-11-08T00:38:07.310Z,93735.13
2023-11-08T00:39:06.921Z,93727.41
2023-11-08T00:40:05.492Z,93732.13
2023-11-08T00:41:02.135Z,93728.53
2023-11-08T00:41:58.809Z,93709.56
2023-11-08T00:42:55.707Z,93730.66
2023-11-08T00:43:57.435Z,93723.63
2023-11-08T00:44:54.149Z,93727.91
2023-11-08T00:45:51.832Z,93732.28
2023-11-08T00:46:48.514Z,93725.22
2023-11-08T00:47:45.417Z,93720.22
2023-11-08T00:48:42.833Z,93723.34
2023-11-08T00:49:39.511Z,93715.22
2023-11-08T00:50:36.180Z,93724.66
2023-11-08T00:51:33.419Z,93716.19
2023-11-08T00:52:30.182Z,93718.44
2023-11-08T00:53:26.903Z,93715.88
2023-11-08T00:54:23.681Z,93716.41
2023-11-08T00:55:20.516Z,93709.34
2023-11-08T00:56:17.610Z,93711.34
2023-11-08T00:57:14.291Z,93713.47
2023-11-08T00:58:11.094Z,93715.03
2023-11-08T00:59:07.770Z,93719.66
2023-11-08T01:00:09.129Z,93702.63
2023-11-08T01:01:06.967Z,93698.22
2023-11-08T01:02:04.633Z,93694.06
2023-11-08T01:03:01.987Z,93692.25
2023-11-08T01:03:59.128Z,93683.09
2023-11-08T01:04:56.147Z,93689.41
2023-11-08T01:05:52.939Z,93693.75
2023-11-08T01:06:49.689Z,93702.22
2023-11-08T01:07:46.471Z,93708.41
2023-11-08T01:08:43.221Z,93698.84
2023-11-08T01:09:39.952Z,93674.59
2023-11-08T01:10:39.561Z,93652.28
2023-11-08T01:11:37.071Z,93667.34
2023-11-08T01:12:35.130Z,93664.41
2023-11-08T01:13:32.628Z,93690.00
2023-11-08T01:14:29.715Z,93711.41
2023-11-08T01:15:26.647Z,93709.88
2023-11-08T01:16:23.349Z,93691.16
2023-11-08T01:17:20.176Z,93687.59
2023-11-08T01:18:17.683Z,93674.53
2023-11-08T01:19:15.039Z,93675.47
2023-11-08T01:20:12.525Z,93667.50
2023-11-08T01:21:09.284Z,93673.47
2023-11-08T01:22:06.799Z,93683.81
2023-11-08T01:23:04.263Z,93701.91
2023-11-08T01:24:01.767Z,93710.06
2023-11-08T01:24:58.483Z,93688.91
2023-11-08T01:25:55.400Z,93663.66
2023-11-08T01:26:52.108Z,93665.63
2023-11-08T01:27:48.984Z,93666.41
2023-11-08T01:28:46.428Z,93673.81
2023-11-08T01:29:43.201Z,93678.13
2023-11-08T01:30:40.137Z,93670.91
2023-11-08T01:31:36.801Z,93671.69
2023-11-08T01:32:33.560Z,93670.97
2023-11-08T01:33:30.616Z,93664.41
2023-11-08T01:34:27.426Z,93651.06
2023-11-08T01:35:24.243Z,93652.78
2023-11-08T01:36:21.008Z,93665.16
2023-11-08T01:37:17.847Z,93664.59
2023-11-08T01:38:14.496Z,93644.03
2023-11-08T01:39:11.289Z,93663.91
2023-11-08T01:40:09.341Z,93652.28
2023-11-08T01:41:06.170Z,93679.78
2023-11-08T01:42:03.396Z,93681.63
2023-11-08T01:43:00.127Z,93666.50
2023-11-08T01:44:01.292Z,93634.06
2023-11-08T01:44:58.011Z,93656.50
2023-11-08T01:46:05.254Z,93657.78
2023-11-08T01:47:04.058Z,93673.09
2023-11-08T01:48:00.872Z,93669.47
2023-11-08T01:49:00.172Z,93660.69
2023-11-08T01:49:57.043Z,93655.47
2023-11-08T01:50:53.866Z,93661.78
2023-11-08T01:51:50.998Z,93660.91
2023-11-08T01:52:47.882Z,93657.38
2023-11-08T01:53:44.812Z,93655.84
2023-11-08T01:54:46.564Z,93644.50
2023-11-08T01:55:43.738Z,93663.31
2023-11-08T01:56:45.538Z,93656.81
2023-11-08T01:57:42.605Z,93644.44
2023-11-08T01:58:39.881Z,93642.50
2023-11-08T01:59:37.002Z,93639.06
2023-11-08T02:00:36.807Z,93646.25
2023-11-08T02:01:33.603Z,93647.81
2023-11-08T02:02:30.398Z,93649.44
2023-11-08T02:03:28.998Z,93651.59
2023-11-08T02:04:27.702Z,93642.00
2023-11-08T02:05:25.819Z,93639.63
2023-11-08T02:06:23.225Z,93647.66
2023-11-08T02:07:19.931Z,93649.91
2023-11-08T02:08:19.926Z,93651.84
2023-11-08T02:09:18.208Z,93649.09
2023-11-08T02:10:15.725Z,93625.91
2023-11-08T02:11:14.216Z,93639.81
2023-11-08T02:12:12.892Z,93642.59
2023-11-08T02:13:09.712Z,93638.78
2023-11-08T02:14:06.709Z,93629.38
2023-11-08T02:15:05.302Z,93603.97
2023-11-08T02:16:03.181Z,93627.84
2023-11-08T02:16:59.883Z,93632.06
2023-11-08T02:17:56.608Z,93626.03
2023-11-08T02:18:53.369Z,93630.38
2023-11-08T02:19:50.124Z,93639.97
2023-11-08T02:20:47.109Z,93628.50
2023-11-08T02:21:43.804Z,93624.69
2023-11-08T02:22:40.472Z,93620.97
2023-11-08T02:23:37.716Z,93610.34
2023-11-08T02:24:34.502Z,93605.13
2023-11-08T02:25:31.636Z,93616.38
2023-11-08T02:26:28.308Z,93602.47
2023-11-08T02:27:25.021Z,93593.38
2023-11-08T02:28:22.510Z,93602.84
2023-11-08T02:29:21.373Z,93615.41
2023-11-08T02:30:18.716Z,93616.19
2023-11-08T02:31:17.119Z,93612.44
2023-11-08T02:32:13.823Z,93608.56
2023-11-08T02:33:10.796Z,93614.00
2023-11-08T02:34:10.851Z,93610.41
2023-11-08T02:35:07.995Z,93628.69
2023-11-08T02:36:05.250Z,93621.53
2023-11-08T02:37:02.118Z,93624.34
2023-11-08T02:37:58.758Z,93636.22
2023-11-08T02:38:57.108Z,93638.66
2023-11-08T02:39:54.029Z,93628.94
2023-11-08T02:40:50.872Z,93634.50
2023-11-08T02:41:48.994Z,93630.31
2023-11-08T02:42:47.074Z,93634.19
2023-11-08T02:43:45.063Z,93637.38
2023-11-08T02:44:41.718Z,93656.22
2023-11-08T02:45:38.849Z,93645.06
2023-11-08T02:46:36.361Z,93631.03
2023-11-08T02:47:33.096Z,93642.34
2023-11-08T02:48:30.042Z,93642.44
2023-11-08T02:49:32.476Z,93653.16
2023-11-08T02:50:29.761Z,93652.66
2023-11-08T02:51:29.862Z,93631.84
2023-11-08T02:52:26.895Z,93632.38
2023-11-08T02:53:23.645Z,93628.66
2023-11-08T02:54:20.327Z,93635.97
2023-11-08T02:55:17.103Z,93640.84
2023-11-08T02:56:14.270Z,93642.81
2023-11-08T02:57:10.995Z,93643.56
2023-11-08T02:58:07.816Z,93641.75
2023-11-08T02:59:04.534Z,93625.03
2023-11-08T03:00:04.929Z,93644.66
2023-11-08T03:01:01.608Z,93652.78
2023-11-08T03:01:58.755Z,93641.22
2023-11-08T03:02:56.224Z,93630.09
2023-11-08T03:03:52.998Z,93633.19
2023-11-08T03:04:49.884Z,93638.59
2023-11-08T03:05:46.715Z,93651.84
2023-11-08T03:06:44.985Z,93636.75
2023-11-08T03:07:43.259Z,93624.00
2023-11-08T03:08:40.041Z,93627.34
2023-11-08T03:09:36.805Z,93627.72
2023-11-08T03:10:35.793Z,93631.06
2023-11-08T03:11:32.434Z,93621.34
2023-11-08T03:12:30.171Z,93608.47
2023-11-08T03:13:27.118Z,93613.88
2023-11-08T03:14:23.953Z,93621.09
2023-11-08T03:15:24.978Z,93617.38
2023-11-08T03:16:22.321Z,93590.91
2023-11-08T03:17:19.621Z,93596.34
2023-11-08T03:18:19.159Z,93608.72
2023-11-08T03:19:15.972Z,93628.84
2023-11-08T03:20:16.914Z,93623.91
2023-11-08T03:21:13.626Z,93603.41
2023-11-08T03:22:13.944Z,93586.81
2023-11-08T03:23:10.664Z,93602.84
2023-11-08T03:24:07.641Z,93608.47
2023-11-08T03:25:04.589Z,93622.09
2023-11-08T03:26:01.241Z,93610.84
2023-11-08T03:26:58.009Z,93606.28
2023-11-08T03:27:54.646Z,93611.81
2023-11-08T03:28:51.347Z,93628.44
2023-11-08T03:29:48.006Z,93631.28
2023-11-08T03:30:45.266Z,93630.50
2023-11-08T03:31:41.917Z,93630.66
2023-11-08T03:32:38.712Z,93624.22
2023-11-08T03:33:37.004Z,93641.25
2023-11-08T03:34:34.503Z,93651.56
2023-11-08T03:35:31.223Z,93636.00
2023-11-08T03:36:30.193Z,93631.63
2023-11-08T03:37:27.018Z,93647.81
2023-11-08T03:38:23.639Z,93622.22
2023-11-08T03:39:20.504Z,93616.88
2023-11-08T03:40:18.636Z,93606.84
2023-11-08T03:41:16.014Z,93606.78
2023-11-08T03:42:12.714Z,93609.22
2023-11-08T03:43:09.413Z,93605.84
2023-11-08T03:44:06.994Z,93610.56
2023-11-08T03:45:05.362Z,93602.75
2023-11-08T03:46:02.071Z,93601.88
2023-11-08T03:46:58.891Z,93598.91
2023-11-08T03:47:55.595Z,93593.44
2023-11-08T03:48:56.216Z,93612.13
2023-11-08T03:49:53.001Z,93619.97
2023-11-08T03:50:49.678Z,93600.84
2023-11-08T03:51:46.337Z,93609.44
2023-11-08T03:52:43.115Z,93625.75
2023-11-08T03:53:39.827Z,93622.44
2023-11-08T03:54:36.605Z,93602.81
2023-11-08T03:55:34.170Z,93622.72
2023-11-08T03:56:31.318Z,93645.28
2023-11-08T03:57:29.521Z,93649.44
2023-11-08T03:58:26.410Z,93621.38
2023-11-08T03:59:23.100Z,93624.59
2023-11-08T04:00:19.990Z,93641.06
2023-11-08T04:01:17.545Z,93632.38
2023-11-08T04:02:14.263Z,93653.31
2023-11-08T04:03:10.919Z,93629.84
2023-11-08T04:04:07.605Z,93645.84
2023-11-08T04:05:04.792Z,93638.16
2023-11-08T04:06:01.773Z,93648.94
2023-11-08T04:06:58.645Z,93646.06
2023-11-08T04:07:55.301Z,93654.34
2023-11-08T04:08:52.035Z,93652.50
2023-11-08T04:09:49.340Z,93656.44
2023-11-08T04:10:46.124Z,93648.88
2023-11-08T04:11:42.802Z,93625.81
2023-11-08T04:12:39.626Z,93646.41
2023-11-08T04:13:36.359Z,93642.97
2023-11-08T04:14:32.994Z,93648.41
2023-11-08T04:15:31.103Z,93648.50
2023-11-08T04:16:27.851Z,93648.91
2023-11-08T04:17:24.951Z,93646.06
2023-11-08T04:18:21.698Z,93635.69
2023-11-08T04:19:18.344Z,93645.09
2023-11-08T04:20:15.840Z,93640.16
2023-11-08T04:21:12.528Z,93645.09
2023-11-08T04:22:11.014Z,93631.94
2023-11-08T04:23:07.883Z,93628.31
2023-11-08T04:24:04.935Z,93623.94
2023-11-08T04:25:01.542Z,93627.16
2023-11-08T04:25:58.215Z,93622.59
2023-11-08T04:26:54.920Z,93625.44
2023-11-08T04:27:51.667Z,93625.03
2023-11-08T04:28:48.368Z,93618.81
2023-11-08T04:29:45.034Z,93611.47
2023-11-08T04:30:41.661Z,93618.56
2023-11-08T04:31:38.317Z,93608.97
2023-11-08T04:32:35.114Z,93616.56
2023-11-08T04:33:31.964Z,93617.13
2023-11-08T04:34:29.943Z,93621.91
2023-11-08T04:35:26.664Z,93618.38
2023-11-08T04:36:23.375Z,93624.84
2023-11-08T04:37:20.167Z,93608.13
2023-11-08T04:38:16.930Z,93624.03
2023-11-08T04:39:17.115Z,93629.38
2023-11-08T04:40:13.940Z,93626.50
2023-11-08T04:41:13.709Z,93625.66
2023-11-08T04:42:10.482Z,93626.91
2023-11-08T04:43:07.428Z,93621.50
2023-11-08T04:44:04.441Z,93630.41
2023-11-08T04:45:01.160Z,93626.72
2023-11-08T04:45:57.849Z,93627.84
2023-11-08T04:46:54.500Z,93629.38
2023-11-08T04:47:51.258Z,93623.72
2023-11-08T04:48:48.294Z,93626.94
2023-11-08T04:49:49.313Z,93635.13
2023-11-08T04:50:45.989Z,93637.72
2023-11-08T04:51:42.928Z,93634.28
2023-11-08T04:52:40.181Z,93636.44
2023-11-08T04:53:36.870Z,93634.22
2023-11-08T04:54:43.921Z,93632.66
2023-11-08T04:55:44.622Z,93633.72
2023-11-08T04:56:42.743Z,93634.13
2023-11-08T04:57:39.446Z,93631.38
2023-11-08T04:58:36.125Z,93631.13
2023-11-08T04:59:34.113Z,93628.03
2023-11-08T05:00:30.744Z,93623.81
2023-11-08T05:01:29.706Z,93631.44
2023-11-08T05:02:26.865Z,93639.44
2023-11-08T05:03:24.020Z,93646.13
2023-11-08T05:04:20.733Z,93651.47
2023-11-08T05:05:17.493Z,93654.75
2023-11-08T05:06:14.203Z,93654.97
2023-11-08T05:07:10.969Z,93647.31
2023-11-08T05:08:07.696Z,93646.94
2023-11-08T05:09:04.441Z,93649.09
2023-11-08T05:10:01.233Z,93656.59
2023-11-08T05:10:57.987Z,93651.59
2023-11-08T05:11:54.729Z,93648.28
2023-11-08T05:12:52.607Z,93652.41
2023-11-08T05:13:49.948Z,93648.50
2023-11-08T05:14:47.183Z,93645.63
2023-11-08T05:15:44.397Z,93650.28
2023-11-08T05:16:41.104Z,93642.16
2023-11-08T05:17:38.828Z,93630.28
2023-11-08T05:18:35.698Z,93648.63
2023-11-08T05:19:33.027Z,93633.25
2023-11-08T05:20:30.929Z,93644.28
2023-11-08T05:21:27.913Z,93645.13
2023-11-08T05:22:24.964Z,93637.00
2023-11-08T05:23:21.695Z,93637.47
2023-11-08T05:24:18.909Z,93641.28
2023-11-08T05:25:16.597Z,93649.97
2023-11-08T05:26:13.402Z,93621.38
2023-11-08T05:27:12.906Z,93650.75
2023-11-08T05:28:09.987Z,93637.03
2023-11-08T05:29:06.742Z,93641.19
2023-11-08T05:30:06.060Z,93633.31
2023-11-08T05:31:02.808Z,93628.53
2023-11-08T05:32:00.278Z,93633.00
2023-11-08T05:32:57.237Z,93622.75
2023-11-08T05:33:54.276Z,93619.19
2023-11-08T05:34:51.240Z,93617.56
2023-11-08T05:35:47.936Z,93601.06
2023-11-08T05:36:44.649Z,93617.22
2023-11-08T05:37:44.113Z,93621.16
2023-11-08T05:38:41.181Z,93628.13
2023-11-08T05:39:37.905Z,93627.19
2023-11-08T05:40:35.636Z,93628.53
2023-11-08T05:41:32.463Z,93629.78
2023-11-08T05:42:29.652Z,93624.84
2023-11-08T05:43:27.040Z,93615.22
2023-11-08T05:44:25.639Z,93634.09
2023-11-08T05:45:22.915Z,93634.13
2023-11-08T05:46:19.628Z,93638.69
2023-11-08T05:47:16.439Z,93632.44
2023-11-08T05:48:13.180Z,93629.94
2023-11-08T05:49:10.249Z,93631.59
2023-11-08T05:50:11.228Z,93637.72
2023-11-08T05:51:07.924Z,93637.09
2023-11-08T05:52:04.913Z,93626.75
2023-11-08T05:53:01.778Z,93639.28
2023-11-08T05:53:58.525Z,93643.38
2023-11-08T05:54:55.812Z,93643.34
2023-11-08T05:55:52.520Z,93647.09
2023-11-08T05:56:49.416Z,93645.19
2023-11-08T05:57:46.216Z,93647.28
2023-11-08T05:58:42.941Z,93642.00
2023-11-08T05:59:42.283Z,93635.44
2023-11-08T06:00:38.976Z,93640.59
2023-11-08T06:01:35.643Z,93643.00
2023-11-08T06:02:32.386Z,93651.72
2023-11-08T06:03:29.395Z,93646.38
2023-11-08T06:04:26.389Z,93640.94
2023-11-08T06:05:23.741Z,93644.44
2023-11-08T06:06:21.314Z,93642.25
2023-11-08T06:07:18.185Z,93640.72
2023-11-08T06:08:14.863Z,93632.63
2023-11-08T06:09:14.529Z,93638.75
2023-11-08T06:10:13.071Z,93642.47
2023-11-08T06:11:09.888Z,93640.25
2023-11-08T06:12:07.412Z,93636.56
2023-11-08T06:13:04.141Z,93644.38
2023-11-08T06:14:00.922Z,93643.28
2023-11-08T06:14:57.607Z,93645.00
2023-11-08T06:15:54.384Z,93651.31
2023-11-08T06:16:53.174Z,93634.84
2023-11-08T06:17:53.784Z,93640.00
2023-11-08T06:18:50.715Z,93643.38
2023-11-08T06:19:48.737Z,93644.13
2023-11-08T06:20:45.437Z,93649.91
2023-11-08T06:21:42.225Z,93662.75
2023-11-08T06:22:39.382Z,93657.06
2023-11-08T06:23:37.102Z,93656.53
2023-11-08T06:24:33.811Z,93658.34
2023-11-08T06:25:31.553Z,93655.84
2023-11-08T06:26:28.535Z,93653.41
2023-11-08T06:27:25.224Z,93647.81
2023-11-08T06:28:22.105Z,93655.28
2023-11-08T06:29:18.775Z,93663.00
2023-11-08T06:30:17.144Z,93670.63
2023-11-08T06:31:14.678Z,93676.75
2023-11-08T06:32:11.368Z,93668.72
2023-11-08T06:33:09.003Z,93682.94
2023-11-08T06:34:05.826Z,93677.28
2023-11-08T06:35:03.856Z,93671.03
2023-11-08T06:36:01.006Z,93672.25
2023-11-08T06:36:58.858Z,93680.56
2023-11-08T06:37:55.598Z,93683.50
2023-11-08T06:38:52.362Z,93684.25
2023-11-08T06:39:49.177Z,93680.13
2023-11-08T06:40:45.820Z,93677.44
2023-11-08T06:41:43.402Z,93684.69
2023-11-08T06:42:40.092Z,93684.72
2023-11-08T06:43:36.866Z,93684.19
2023-11-08T06:44:34.432Z,93678.91
2023-11-08T06:45:32.066Z,93676.69
2023-11-08T06:46:28.664Z,93682.91
2023-11-08T06:47:25.483Z,93683.47
2023-11-08T06:48:22.648Z,93670.41
2023-11-08T06:49:19.673Z,93674.91
2023-11-08T06:50:16.640Z,93682.09
2023-11-08T06:51:13.586Z,93674.81
2023-11-08T06:52:10.529Z,93672.53
2023-11-08T06:53:07.191Z,93676.66
2023-11-08T06:54:03.999Z,93670.72
2023-11-08T06:55:00.820Z,93667.19
2023-11-08T06:55:59.225Z,93669.31
2023-11-08T06:56:55.851Z,93666.88
2023-11-08T06:57:52.599Z,93668.16
2023-11-08T06:58:49.341Z,93661.94
2023-11-08T06:59:46.614Z,93671.44
2023-11-08T07:00:44.213Z,93666.50
2023-11-08T07:01:42.605Z,93671.06
2023-11-08T07:02:39.296Z,93672.03
2023-11-08T07:03:36.025Z,93676.84
2023-11-08T07:04:32.961Z,93676.66
2023-11-08T07:05:37.958Z,93685.28
2023-11-08T07:06:35.949Z,93688.78
2023-11-08T07:07:34.165Z,93692.22
2023-11-08T07:08:31.103Z,93693.44
2023-11-08T07:09:27.778Z,93688.34
2023-11-08T07:10:24.404Z,93695.19
2023-11-08T07:11:21.024Z,93695.50
2023-11-08T07:12:17.782Z,93703.78
2023-11-08T07:13:14.427Z,93702.06
2023-11-08T07:14:11.330Z,93699.06
2023-11-08T07:15:08.841Z,93690.56
2023-11-08T07:16:07.800Z,93681.50
2023-11-08T07:17:04.843Z,93684.72
2023-11-08T07:18:01.860Z,93690.34
2023-11-08T07:18:58.883Z,93681.50
2023-11-08T07:19:55.591Z,93689.59
2023-11-08T07:20:52.318Z,93696.72
2023-11-08T07:21:49.088Z,93691.69
2023-11-08T07:22:45.692Z,93687.69
2023-11-08T07:23:42.283Z,93702.81
2023-11-08T07:24:39.046Z,93697.28
2023-11-08T07:25:36.045Z,93701.63
2023-11-08T07:26:32.704Z,93697.56
2023-11-08T07:27:29.479Z,93700.03
2023-11-08T07:28:26.142Z,93708.66
2023-11-08T07:29:23.590Z,93710.84
2023-11-08T07:30:20.424Z,93708.41
2023-11-08T07:31:17.321Z,93711.13
2023-11-08T07:32:15.745Z,93724.91
2023-11-08T07:33:15.775Z,93717.28
2023-11-08T07:34:15.370Z,93712.91
2023-11-08T07:35:13.518Z,93712.16
2023-11-08T07:36:10.282Z,93722.22
2023-11-08T07:37:06.941Z,93712.00
2023-11-08T07:38:03.657Z,93718.59
2023-11-08T07:39:06.077Z,93719.22
2023-11-08T07:40:04.015Z,93727.63
2023-11-08T07:41:02.660Z,93722.53
2023-11-08T07:41:59.992Z,93733.88
2023-11-08T07:42:57.152Z,93735.66
2023-11-08T07:43:54.179Z,93728.22
2023-11-08T07:44:51.486Z,93715.06
2023-11-08T07:45:50.816Z,93726.63
2023-11-08T07:46:47.467Z,93721.75
2023-11-08T07:47:44.707Z,93710.19
2023-11-08T07:48:41.613Z,93701.53
2023-11-08T07:49:39.522Z,93705.44
2023-11-08T07:50:36.164Z,93706.66
2023-11-08T07:51:32.844Z,93713.00
2023-11-08T07:52:30.044Z,93700.56
2023-11-08T07:53:26.825Z,93712.53
2023-11-08T07:54:23.443Z,93709.34
2023-11-08T07:55:20.077Z,93702.50
2023-11-08T07:56:17.004Z,93699.00
2023-11-08T07:57:13.597Z,93692.50
2023-11-08T07:58:10.282Z,93688.09
2023-11-08T07:59:07.239Z,93690.94
2023-11-08T08:00:04.386Z,93693.97
2023-11-08T08:01:02.292Z,93684.88
2023-11-08T08:01:58.978Z,93682.84
2023-11-08T08:02:56.128Z,93687.81
2023-11-08T08:03:52.849Z,93695.47
2023-11-08T08:04:50.255Z,93687.81
2023-11-08T08:05:47.122Z,93688.84
2023-11-08T08:06:43.848Z,93692.69
2023-11-08T08:07:40.894Z,93674.13
2023-11-08T08:08:37.567Z,93686.97
2023-11-08T08:09:34.268Z,93681.41
2023-11-08T08:10:33.385Z,93675.59
2023-11-08T08:11:30.096Z,93673.31
2023-11-08T08:12:30.903Z,93677.56
2023-11-08T08:13:33.252Z,93674.28
2023-11-08T08:14:30.431Z,93673.50
2023-11-08T08:15:27.164Z,93667.28
2023-11-08T08:16:23.884Z,93661.44
2023-11-08T08:17:20.970Z,93655.50
2023-11-08T08:18:18.993Z,93658.97
2023-11-08T08:19:15.820Z,93654.41
2023-11-08T08:20:13.077Z,93653.94
2023-11-08T08:21:09.758Z,93652.72
2023-11-08T08:22:07.155Z,93636.31
2023-11-08T08:23:03.974Z,93657.13
2023-11-08T08:24:06.951Z,93644.75
2023-11-08T08:25:04.941Z,93661.41
2023-11-08T08:26:01.676Z,93624.69
2023-11-08T08:26:59.243Z,93665.75
2023-11-08T08:27:56.668Z,93660.75
2023-11-08T08:28:53.361Z,93668.38
2023-11-08T08:29:50.015Z,93670.16
2023-11-08T08:30:46.838Z,93672.03
2023-11-08T08:31:43.502Z,93668.41
2023-11-08T08:32:42.284Z,93668.63
2023-11-08T08:33:39.018Z,93663.59
2023-11-08T08:34:35.778Z,93662.88
2023-11-08T08:35:33.669Z,93668.59
2023-11-08T08:36:33.155Z,93671.09
2023-11-08T08:37:31.028Z,93654.28
2023-11-08T08:38:27.848Z,93656.09
2023-11-08T08:39:29.001Z,93653.44
2023-11-08T08:40:27.054Z,93641.94
2023-11-08T08:41:23.802Z,93641.06
2023-11-08T08:42:20.626Z,93640.28
2023-11-08T08:43:21.457Z,93639.59
2023-11-08T08:44:18.986Z,93639.38
2023-11-08T08:45:15.761Z,93631.56
2023-11-08T08:46:12.392Z,93643.38
2023-11-08T08:47:09.095Z,93656.38
2023-11-08T08:48:06.025Z,93648.84
2023-11-08T08:49:02.977Z,93652.09
2023-11-08T08:50:00.294Z,93654.38
2023-11-08T08:50:57.036Z,93662.69
2023-11-08T08:51:53.966Z,93654.75
2023-11-08T08:52:50.710Z,93667.31
2023-11-08T08:53:47.448Z,93660.41
2023-11-08T08:54:44.212Z,93644.75
2023-11-08T08:55:42.170Z,93668.75
2023-11-08T08:56:41.230Z,93662.19
2023-11-08T08:57:38.442Z,93651.19
2023-11-08T08:58:36.756Z,93657.94
2023-11-08T08:59:33.692Z,93655.56
2023-11-08T09:00:31.468Z,93652.94
2023-11-08T09:01:28.209Z,93660.53
2023-11-08T09:02:26.619Z,93656.06
2023-11-08T09:03:24.286Z,93660.91
2023-11-08T09:04:21.337Z,93666.81
2023-11-08T09:05:20.541Z,93658.22
2023-11-08T09:06:20.730Z,93646.50
2023-11-08T09:07:17.457Z,93650.00
2023-11-08T09:08:14.128Z,93648.75
2023-11-08T09:09:14.777Z,93654.09
2023-11-08T09:10:12.065Z,93655.78
2023-11-08T09:11:11.582Z,93662.56
2023-11-08T09:12:09.052Z,93672.50
2023-11-08T09:13:06.618Z,93677.97
2023-11-08T09:14:03.995Z,93684.53
2023-11-08T09:15:02.724Z,93687.19
2023-11-08T09:16:01.874Z,93685.69
2023-11-08T09:16:58.774Z,93686.13
2023-11-08T09:17:55.518Z,93686.81
2023-11-08T09:18:52.342Z,93687.00
2023-11-08T09:19:49.318Z,93686.03
2023-11-08T09:20:46.044Z,93680.56
2023-11-08T09:21:44.177Z,93683.34
2023-11-08T09:22:42.378Z,93684.28
2023-11-08T09:23:39.807Z,93685.88
2023-11-08T09:24:36.544Z,93688.53
2023-11-08T09:25:34.779Z,93690.38
2023-11-08T09:26:31.546Z,93698.22
2023-11-08T09:27:28.214Z,93688.38
2023-11-08T09:28:25.323Z,93708.34
2023-11-08T09:29:22.089Z,93694.19
2023-11-08T09:30:18.867Z,93696.84
2023-11-08T09:31:17.877Z,93704.06
2023-11-08T09:32:14.725Z,93699.16
2023-11-08T09:33:11.707Z,93699.97
2023-11-08T09:34:08.728Z,93687.38
2023-11-08T09:35:06.167Z,93695.09
2023-11-08T09:36:03.055Z,93694.25
2023-11-08T09:37:01.647Z,93681.81
2023-11-08T09:38:00.040Z,93688.03
2023-11-08T09:39:07.927Z,93682.56
2023-11-08T09:40:12.197Z,93709.00
2023-11-08T09:41:10.152Z,93707.13
2023-11-08T09:42:07.471Z,93702.22
2023-11-08T09:43:06.418Z,93707.41
2023-11-08T09:44:04.413Z,93704.19
2023-11-08T09:45:01.636Z,93693.72
2023-11-08T09:45:59.161Z,93707.94
2023-11-08T09:46:56.993Z,93704.72
2023-11-08T09:47:53.798Z,93715.16
2023-11-08T09:48:51.663Z,93694.16
2023-11-08T09:49:53.871Z,93716.06
2023-11-08T09:50:52.774Z,93707.34
2023-11-08T09:51:49.918Z,93722.00
2023-11-08T09:52:46.631Z,93723.44
2023-11-08T09:53:44.477Z,93726.34
2023-11-08T09:54:43.207Z,93726.44
2023-11-08T09:55:40.025Z,93728.63
2023-11-08T09:56:36.778Z,93725.38
2023-11-08T09:57:36.607Z,93730.94
2023-11-08T09:58:33.777Z,93731.22
2023-11-08T09:59:33.135Z,93724.81
2023-11-08T10:00:31.849Z,93733.00
2023-11-08T10:01:31.245Z,93730.66
2023-11-08T10:02:29.727Z,93710.63
2023-11-08T10:03:27.218Z,93709.47
2023-11-08T10:04:32.124Z,93723.31
2023-11-08T10:05:38.307Z,93711.97
2023-11-08T10:06:36.369Z,93722.81
2023-11-08T10:07:33.728Z,93728.91
2023-11-08T10:08:30.618Z,93720.72
2023-11-08T10:09:32.682Z,93725.34
2023-11-08T10:10:30.131Z,93717.69
2023-11-08T10:12:27.057Z,93714.56
2023-11-08T10:13:41.809Z,93707.75
2023-11-08T10:14:44.653Z,93717.38
2023-11-08T10:15:41.323Z,93711.25
2023-11-08T10:16:55.242Z,93717.16
2023-11-08T10:19:31.788Z,93721.19
2023-11-08T10:19:37.228Z,93712.72
2023-11-08T10:20:36.707Z,93715.78
2023-11-08T10:21:34.205Z,93718.56
2023-11-08T10:22:31.288Z,93704.81
2023-11-08T10:23:30.085Z,93709.78
2023-11-08T10:24:26.868Z,93710.53
2023-11-08T10:25:27.302Z,93699.38
2023-11-08T10:26:26.739Z,93694.25
2023-11-08T10:27:24.610Z,93680.44
2023-11-08T10:28:22.038Z,93692.97
2023-11-08T10:29:20.443Z,93701.66
2023-11-08T10:30:20.265Z,93696.25
2023-11-08T10:31:30.970Z,93700.63
2023-11-08T10:32:27.792Z,93709.34
2023-11-08T10:33:24.483Z,93704.88
2023-11-08T10:34:26.240Z,93710.44
2023-11-08T10:35:23.367Z,93708.63
2023-11-08T10:36:31.993Z,93699.75
2023-11-08T10:37:29.917Z,93701.06
2023-11-08T10:38:26.540Z,93697.16
2023-11-08T10:39:23.270Z,93695.66
2023-11-08T10:40:22.506Z,93690.03
2023-11-08T10:41:19.302Z,93689.66
2023-11-08T10:42:16.113Z,93686.84
2023-11-08T10:43:22.062Z,93687.91
2023-11-08T10:44:26.546Z,93691.41
2023-11-08T10:45:24.988Z,93687.97
2023-11-08T10:46:22.556Z,93691.41
2023-11-08T10:47:19.386Z,93690.88
2023-11-08T10:48:16.580Z,93690.88
2023-11-08T10:49:13.312Z,93687.25
2023-11-08T10:50:10.264Z,93672.38
2023-11-08T10:51:06.996Z,93679.75
2023-11-08T10:52:05.073Z,93680.56
2023-11-08T10:53:01.868Z,93678.56
2023-11-08T10:53:58.791Z,93675.22
2023-11-08T10:54:55.457Z,93682.53
2023-11-08T10:55:56.628Z,93687.53
2023-11-08T10:56:55.989Z,93684.09
2023-11-08T10:58:02.410Z,93678.34
2023-11-08T10:59:04.143Z,93685.50
2023-11-08T11:00:02.387Z,93685.00
2023-11-08T11:01:03.864Z,93680.78
2023-11-08T11:02:00.689Z,93686.22
2023-11-08T11:03:06.818Z,93685.56
2023-11-08T11:04:07.230Z,93694.34
2023-11-08T11:05:05.489Z,93687.06
2023-11-08T11:06:04.820Z,93681.16
2023-11-08T11:07:02.818Z,93688.69
2023-11-08T11:08:01.856Z,93687.94
2023-11-08T11:08:59.508Z,93689.00
2023-11-08T11:09:56.454Z,93696.31
2023-11-08T11:10:53.328Z,93697.50
2023-11-08T11:12:00.205Z,93700.66
2023-11-08T11:13:06.300Z,93697.56
2023-11-08T11:14:14.699Z,93696.94
2023-11-08T11:15:21.371Z,93701.97
2023-11-08T11:16:31.491Z,93691.94
2023-11-08T11:17:35.903Z,93703.22
2023-11-08T11:18:41.023Z,93710.19
2023-11-08T11:19:42.812Z,93706.88
2023-11-08T11:20:45.989Z,93713.13